To NAV CANADA Home Page Login to a new session Search on AWWS site Feedback and Comments Disclaimer Vers la page française équivalente Tips FAQ What's new on the site To the Forecasts and Observations / NOTAM section To "File a Flight Plan" website Publications and other links Update of the User's profile FIC Telephone Numbers My Weather Data Folder Route Weather Data Regional Weather Data Local Weather Data To the Forecasts and Observations / NOTAM section
Request Generated 12/10/2016 at 16:31:31 UTC . Weather information available at that time is displayed.

METAR/TAF

FARO/YT    

METAR CZFA 101600Z VRB02KT 30SM FEW090 M30/M33 A3029 RMK AC1 SLP356=
METAR CZFA 101500Z 30005KT 30SM FEW025 FEW075 SCT110 M30/M32 A3029
RMK SC1AC1AC1 CLIMAT -19.8/-29.6/0.0 47018 SLP356=
LWIS CZFA 101400Z AUTO 29006KT M29/M32 A3029=

*** REMARK        : Forecast period has ended; this was the last TAF issued
*** REMARQUE : La période de prévision est échue; ceci était le dernier TAF qui a été émis
TAF AMD CZFA 091844Z 0918/0923 VRB03KT P6SM -SN BKN020 TEMPO
0918/0923 P6SM NSW SCT025 BKN040
RMK NXT FCST WILL BE ISSUED AT 101645Z=
Your time UTC time
Weather data provided by Environment Canada and NAV CANADA